sensor_id;sensor_type;location;lat;lon;timestamp;temperature;humidity
13682;DHT22;6913;49.892;7.936;2023-11-21T00:02:07;9.90;99.90
13682;DHT22;6913;49.892;7.936;2023-11-21T00:04:34;9.60;99.90
13682;DHT22;6913;49.892;7.936;2023-11-21T00:07:02;9.70;99.90
13682;DHT22;6913;49.892;7.936;2023-11-21T00:09:29;9.90;99.90
13682;DHT22;6913;49.892;7.936;2023-11-21T00:11:55;9.60;99.90
13682;DHT22;6913;49.892;7.936;2023-11-21T00:14:22;9.90;99.90
13682;DHT22;6913;49.892;7.936;2023-11-21T00:16:49;9.60;99.90
13682;DHT22;6913;49.892;7.936;2023-11-21T00:19:16;10.10;99.90
13682;DHT22;6913;49.892;7.936;2023-11-21T00:21:43;9.80;99.90
13682;DHT22;6913;49.892;7.936;2023-11-21T00:24:12;9.80;99.90
13682;DHT22;6913;49.892;7.936;2023-11-21T00:26:39;10.10;99.90
13682;DHT22;6913;49.892;7.936;2023-11-21T00:29:06;9.70;99.90
13682;DHT22;6913;49.892;7.936;2023-11-21T00:31:34;9.80;99.90
13682;DHT22;6913;49.892;7.936;2023-11-21T00:34:02;10.40;99.90
13682;DHT22;6913;49.892;7.936;2023-11-21T00:36:29;9.60;99.90
13682;DHT22;6913;49.892;7.936;2023-11-21T00:38:55;9.90;99.90
13682;DHT22;6913;49.892;7.936;2023-11-21T00:41:24;10.00;99.90
13682;DHT22;6913;49.892;7.936;2023-11-21T00:43:53;9.70;99.90
13682;DHT22;6913;49.892;7.936;2023-11-21T00:46:20;9.70;99.90
13682;DHT22;6913;49.892;7.936;2023-11-21T00:48:47;9.70;99.90
13682;DHT22;6913;49.892;7.936;2023-11-21T00:51:14;9.70;99.90
13682;DHT22;6913;49.892;7.936;2023-11-21T00:53:40;10.10;99.90
13682;DHT22;6913;49.892;7.936;2023-11-21T00:56:07;9.80;99.90
13682;DHT22;6913;49.892;7.936;2023-11-21T00:58:36;9.60;99.90
13682;DHT22;6913;49.892;7.936;2023-11-21T01:01:02;9.60;99.90
13682;DHT22;6913;49.892;7.936;2023-11-21T01:03:29;9.60;99.90
13682;DHT22;6913;49.892;7.936;2023-11-21T01:05:56;9.50;99.90
13682;DHT22;6913;49.892;7.936;2023-11-21T01:08:24;9.90;99.90
13682;DHT22;6913;49.892;7.936;2023-11-21T01:10:51;9.90;99.90
13682;DHT22;6913;49.892;7.936;2023-11-21T01:13:18;9.60;99.90
13682;DHT22;6913;49.892;7.936;2023-11-21T01:15:46;9.60;99.90
13682;DHT22;6913;49.892;7.936;2023-11-21T01:18:13;9.60;99.90
13682;DHT22;6913;49.892;7.936;2023-11-21T01:20:40;10.00;99.90
13682;DHT22;6913;49.892;7.936;2023-11-21T01:23:06;9.70;99.90
13682;DHT22;6913;49.892;7.936;2023-11-21T01:25:33;9.60;99.90
13682;DHT22;6913;49.892;7.936;2023-11-21T01:28:00;9.60;99.90
13682;DHT22;6913;49.892;7.936;2023-11-21T01:30:27;9.60;99.90
13682;DHT22;6913;49.892;7.936;2023-11-21T01:32:55;9.70;99.90
13682;DHT22;6913;49.892;7.936;2023-11-21T01:35:22;9.70;99.90
13682;DHT22;6913;49.892;7.936;2023-11-21T01:37:48;10.10;99.90
13682;DHT22;6913;49.892;7.936;2023-11-21T01:40:15;9.80;99.90
13682;DHT22;6913;49.892;7.936;2023-11-21T01:42:43;10.10;99.90
13682;DHT22;6913;49.892;7.936;2023-11-21T01:45:12;9.70;99.90
13682;DHT22;6913;49.892;7.936;2023-11-21T01:47:41;9.70;99.90
13682;DHT22;6913;49.892;7.936;2023-11-21T01:50:13;9.80;99.90
13682;DHT22;6913;49.892;7.936;2023-11-21T01:52:40;9.80;99.90
13682;DHT22;6913;49.892;7.936;2023-11-21T01:55:08;9.80;99.90
13682;DHT22;6913;49.892;7.936;2023-11-21T01:57:35;9.80;99.90
13682;DHT22;6913;49.892;7.936;2023-11-21T02:00:04;9.70;99.90
13682;DHT22;6913;49.892;7.936;2023-11-21T02:02:41;9.80;99.90
13682;DHT22;6913;49.892;7.936;2023-11-21T02:05:09;9.80;99.90
13682;DHT22;6913;49.892;7.936;2023-11-21T02:07:38;9.70;99.90
13682;DHT22;6913;49.892;7.936;2023-11-21T02:10:05;9.80;99.90
13682;DHT22;6913;49.892;7.936;2023-11-21T02:12:32;9.80;99.90
13682;DHT22;6913;49.892;7.936;2023-11-21T02:15:00;9.80;99.90
13682;DHT22;6913;49.892;7.936;2023-11-21T02:17:27;10.30;99.90
13682;DHT22;6913;49.892;7.936;2023-11-21T02:19:54;9.80;99.90
13682;DHT22;6913;49.892;7.936;2023-11-21T02:22:23;10.00;99.90
13682;DHT22;6913;49.892;7.936;2023-11-21T02:24:53;9.70;99.90
13682;DHT22;6913;49.892;7.936;2023-11-21T02:27:20;9.70;99.90
13682;DHT22;6913;49.892;7.936;2023-11-21T02:29:49;9.70;99.90
13682;DHT22;6913;49.892;7.936;2023-11-21T02:32:15;9.80;99.90
13682;DHT22;6913;49.892;7.936;2023-11-21T02:34:44;10.00;99.90
13682;DHT22;6913;49.892;7.936;2023-11-21T02:37:11;9.90;99.90
13682;DHT22;6913;49.892;7.936;2023-11-21T02:39:38;9.80;99.90
13682;DHT22;6913;49.892;7.936;2023-11-21T02:42:06;9.80;99.90
13682;DHT22;6913;49.892;7.936;2023-11-21T02:44:33;9.70;99.90
13682;DHT22;6913;49.892;7.936;2023-11-21T02:47:00;9.70;99.90
13682;DHT22;6913;49.892;7.936;2023-11-21T02:49:27;9.70;99.90
13682;DHT22;6913;49.892;7.936;2023-11-21T02:51:54;9.60;99.90
13682;DHT22;6913;49.892;7.936;2023-11-21T02:54:21;9.50;99.90
13682;DHT22;6913;49.892;7.936;2023-11-21T02:56:48;9.40;99.90
13682;DHT22;6913;49.892;7.936;2023-11-21T02:59:17;9.40;99.90
13682;DHT22;6913;49.892;7.936;2023-11-21T03:01:44;9.30;99.90
13682;DHT22;6913;49.892;7.936;2023-11-21T03:04:11;9.40;99.90
13682;DHT22;6913;49.892;7.936;2023-11-21T03:06:43;9.40;99.90
13682;DHT22;6913;49.892;7.936;2023-11-21T03:09:10;9.40;99.90
13682;DHT22;6913;49.892;7.936;2023-11-21T03:11:38;9.40;99.90
13682;DHT22;6913;49.892;7.936;2023-11-21T03:14:05;9.40;99.90
13682;DHT22;6913;49.892;7.936;2023-11-21T03:16:33;9.50;99.90
13682;DHT22;6913;49.892;7.936;2023-11-21T03:19:00;9.40;99.90
13682;DHT22;6913;49.892;7.936;2023-11-21T03:21:27;9.40;99.90
13682;DHT22;6913;49.892;7.936;2023-11-21T03:23:55;9.70;99.90
13682;DHT22;6913;49.892;7.936;2023-11-21T03:26:22;9.40;99.90
13682;DHT22;6913;49.892;7.936;2023-11-21T03:28:49;9.40;99.90
13682;DHT22;6913;49.892;7.936;2023-11-21T03:31:16;9.30;99.90
13682;DHT22;6913;49.892;7.936;2023-11-21T03:33:45;9.40;99.90
13682;DHT22;6913;49.892;7.936;2023-11-21T03:36:13;9.50;99.90
13682;DHT22;6913;49.892;7.936;2023-11-21T03:38:41;9.30;99.90
13682;DHT22;6913;49.892;7.936;2023-11-21T03:41:08;9.80;99.90
13682;DHT22;6913;49.892;7.936;2023-11-21T03:43:36;9.70;99.90
13682;DHT22;6913;49.892;7.936;2023-11-21T03:46:03;9.30;99.90
13682;DHT22;6913;49.892;7.936;2023-11-21T03:48:30;9.30;99.90
13682;DHT22;6913;49.892;7.936;2023-11-21T03:51:00;9.50;99.90
13682;DHT22;6913;49.892;7.936;2023-11-21T03:53:26;9.30;99.90
13682;DHT22;6913;49.892;7.936;2023-11-21T03:55:53;9.40;99.90
13682;DHT22;6913;49.892;7.936;2023-11-21T03:58:20;9.30;99.90
13682;DHT22;6913;49.892;7.936;2023-11-21T04:00:47;9.40;99.90
13682;DHT22;6913;49.892;7.936;2023-11-21T04:03:14;9.30;99.90
13682;DHT22;6913;49.892;7.936;2023-11-21T04:05:42;9.80;99.90
13682;DHT22;6913;49.892;7.936;2023-11-21T04:08:10;9.40;99.90
13682;DHT22;6913;49.892;7.936;2023-11-21T04:10:37;9.40;99.90
13682;DHT22;6913;49.892;7.936;2023-11-21T04:13:05;9.40;99.90
13682;DHT22;6913;49.892;7.936;2023-11-21T04:15:32;9.50;99.90
13682;DHT22;6913;49.892;7.936;2023-11-21T04:17:59;9.50;99.90
13682;DHT22;6913;49.892;7.936;2023-11-21T04:20:26;9.60;99.90
13682;DHT22;6913;49.892;7.936;2023-11-21T04:22:53;9.60;99.90
13682;DHT22;6913;49.892;7.936;2023-11-21T04:25:21;9.50;99.90
13682;DHT22;6913;49.892;7.936;2023-11-21T04:27:49;9.60;99.90
13682;DHT22;6913;49.892;7.936;2023-11-21T04:30:16;9.50;99.90
13682;DHT22;6913;49.892;7.936;2023-11-21T04:32:43;9.60;99.90
13682;DHT22;6913;49.892;7.936;2023-11-21T04:35:10;9.60;99.90
13682;DHT22;6913;49.892;7.936;2023-11-21T04:37:37;9.60;99.90
13682;DHT22;6913;49.892;7.936;2023-11-21T04:40:04;9.90;99.90
13682;DHT22;6913;49.892;7.936;2023-11-21T04:42:35;9.60;99.90
13682;DHT22;6913;49.892;7.936;2023-11-21T04:45:02;9.60;99.90
13682;DHT22;6913;49.892;7.936;2023-11-21T04:47:33;9.60;99.90
13682;DHT22;6913;49.892;7.936;2023-11-21T04:49:59;9.60;99.90
13682;DHT22;6913;49.892;7.936;2023-11-21T04:52:26;9.50;99.90
13682;DHT22;6913;49.892;7.936;2023-11-21T04:54:53;9.60;99.90
13682;DHT22;6913;49.892;7.936;2023-11-21T04:57:22;9.50;99.90
13682;DHT22;6913;49.892;7.936;2023-11-21T04:59:52;9.40;99.90
13682;DHT22;6913;49.892;7.936;2023-11-21T05:02:19;9.40;99.90
13682;DHT22;6913;49.892;7.936;2023-11-21T05:04:46;10.20;99.90
13682;DHT22;6913;49.892;7.936;2023-11-21T05:07:13;9.40;99.90
13682;DHT22;6913;49.892;7.936;2023-11-21T05:09:42;9.30;99.90
13682;DHT22;6913;49.892;7.936;2023-11-21T05:12:11;9.20;99.90
13682;DHT22;6913;49.892;7.936;2023-11-21T05:14:38;9.40;99.90
13682;DHT22;6913;49.892;7.936;2023-11-21T05:17:06;9.70;99.90
13682;DHT22;6913;49.892;7.936;2023-11-21T05:19:34;9.20;99.90
13682;DHT22;6913;49.892;7.936;2023-11-21T05:22:02;9.20;99.90
13682;DHT22;6913;49.892;7.936;2023-11-21T05:24:29;9.20;99.90
13682;DHT22;6913;49.892;7.936;2023-11-21T05:26:56;9.30;99.90
13682;DHT22;6913;49.892;7.936;2023-11-21T05:29:23;9.10;99.90
13682;DHT22;6913;49.892;7.936;2023-11-21T05:31:51;9.20;99.90
13682;DHT22;6913;49.892;7.936;2023-11-21T05:34:19;9.20;99.90
13682;DHT22;6913;49.892;7.936;2023-11-21T05:36:49;9.20;99.90
13682;DHT22;6913;49.892;7.936;2023-11-21T05:39:16;9.20;99.90
13682;DHT22;6913;49.892;7.936;2023-11-21T05:41:44;9.20;99.90
13682;DHT22;6913;49.892;7.936;2023-11-21T05:44:11;9.30;99.90
13682;DHT22;6913;49.892;7.936;2023-11-21T05:46:40;9.60;99.90
13682;DHT22;6913;49.892;7.936;2023-11-21T05:49:08;9.30;99.90
13682;DHT22;6913;49.892;7.936;2023-11-21T05:51:37;9.30;99.90
13682;DHT22;6913;49.892;7.936;2023-11-21T05:54:04;9.90;99.90
13682;DHT22;6913;49.892;7.936;2023-11-21T05:56:31;9.30;99.90
13682;DHT22;6913;49.892;7.936;2023-11-21T05:58:58;9.30;99.90
13682;DHT22;6913;49.892;7.936;2023-11-21T06:01:25;9.30;99.90
13682;DHT22;6913;49.892;7.936;2023-11-21T06:03:53;9.20;99.90
13682;DHT22;6913;49.892;7.936;2023-11-21T06:06:21;9.30;99.90
13682;DHT22;6913;49.892;7.936;2023-11-21T06:08:51;9.40;99.90
13682;DHT22;6913;49.892;7.936;2023-11-21T06:11:18;9.40;99.90
13682;DHT22;6913;49.892;7.936;2023-11-21T06:13:45;9.60;99.90
13682;DHT22;6913;49.892;7.936;2023-11-21T06:16:13;9.20;99.90
13682;DHT22;6913;49.892;7.936;2023-11-21T06:18:42;9.20;99.90
13682;DHT22;6913;49.892;7.936;2023-11-21T06:21:10;9.20;99.90
13682;DHT22;6913;49.892;7.936;2023-11-21T06:23:37;9.30;99.90
13682;DHT22;6913;49.892;7.936;2023-11-21T06:26:05;9.20;99.90
13682;DHT22;6913;49.892;7.936;2023-11-21T06:28:33;9.20;99.90
13682;DHT22;6913;49.892;7.936;2023-11-21T06:31:00;9.40;99.90
13682;DHT22;6913;49.892;7.936;2023-11-21T06:33:30;9.10;99.90
13682;DHT22;6913;49.892;7.936;2023-11-21T06:35:57;9.00;99.90
13682;DHT22;6913;49.892;7.936;2023-11-21T06:38:24;9.30;99.90
13682;DHT22;6913;49.892;7.936;2023-11-21T06:40:55;8.90;99.90
13682;DHT22;6913;49.892;7.936;2023-11-21T06:43:24;8.90;99.90
13682;DHT22;6913;49.892;7.936;2023-11-21T06:45:52;9.30;99.90
13682;DHT22;6913;49.892;7.936;2023-11-21T06:48:20;9.00;99.90
13682;DHT22;6913;49.892;7.936;2023-11-21T06:50:46;9.00;99.90
13682;DHT22;6913;49.892;7.936;2023-11-21T06:53:14;9.10;99.90
13682;DHT22;6913;49.892;7.936;2023-11-21T06:55:41;9.10;99.90
13682;DHT22;6913;49.892;7.936;2023-11-21T06:58:08;9.10;99.90
13682;DHT22;6913;49.892;7.936;2023-11-21T07:00:36;9.50;99.90
13682;DHT22;6913;49.892;7.936;2023-11-21T07:03:03;9.50;99.90
13682;DHT22;6913;49.892;7.936;2023-11-21T07:05:30;9.70;99.90
13682;DHT22;6913;49.892;7.936;2023-11-21T07:07:57;9.80;99.90
13682;DHT22;6913;49.892;7.936;2023-11-21T07:10:29;9.60;99.90
13682;DHT22;6913;49.892;7.936;2023-11-21T07:12:57;9.40;99.90
13682;DHT22;6913;49.892;7.936;2023-11-21T07:15:23;9.50;99.90
13682;DHT22;6913;49.892;7.936;2023-11-21T07:17:52;9.10;99.90
13682;DHT22;6913;49.892;7.936;2023-11-21T07:20:19;9.20;99.90
13682;DHT22;6913;49.892;7.936;2023-11-21T07:22:47;9.10;99.90
13682;DHT22;6913;49.892;7.936;2023-11-21T07:25:14;9.30;99.90
13682;DHT22;6913;49.892;7.936;2023-11-21T07:27:41;9.20;99.90
13682;DHT22;6913;49.892;7.936;2023-11-21T07:30:09;9.40;99.90
13682;DHT22;6913;49.892;7.936;2023-11-21T07:32:38;9.20;99.90
13682;DHT22;6913;49.892;7.936;2023-11-21T07:35:07;9.30;99.90
13682;DHT22;6913;49.892;7.936;2023-11-21T07:37:34;9.20;99.90
13682;DHT22;6913;49.892;7.936;2023-11-21T07:40:01;9.20;99.90
13682;DHT22;6913;49.892;7.936;2023-11-21T07:42:28;9.20;99.90
13682;DHT22;6913;49.892;7.936;2023-11-21T07:44:55;9.80;99.90
13682;DHT22;6913;49.892;7.936;2023-11-21T07:47:22;9.20;99.90
13682;DHT22;6913;49.892;7.936;2023-11-21T07:49:52;9.20;99.90
13682;DHT22;6913;49.892;7.936;2023-11-21T07:52:22;9.20;99.90
13682;DHT22;6913;49.892;7.936;2023-11-21T07:54:49;9.40;99.90
13682;DHT22;6913;49.892;7.936;2023-11-21T07:57:16;9.70;99.90
13682;DHT22;6913;49.892;7.936;2023-11-21T07:59:43;9.20;99.90
13682;DHT22;6913;49.892;7.936;2023-11-21T08:02:10;9.20;99.90
13682;DHT22;6913;49.892;7.936;2023-11-21T08:04:37;9.20;99.90
13682;DHT22;6913;49.892;7.936;2023-11-21T08:07:04;9.20;99.90
13682;DHT22;6913;49.892;7.936;2023-11-21T08:09:32;9.60;99.90
13682;DHT22;6913;49.892;7.936;2023-11-21T08:12:00;9.20;99.90
13682;DHT22;6913;49.892;7.936;2023-11-21T08:14:28;9.20;99.90
13682;DHT22;6913;49.892;7.936;2023-11-21T08:16:55;9.30;99.90
13682;DHT22;6913;49.892;7.936;2023-11-21T08:19:23;9.30;99.90
13682;DHT22;6913;49.892;7.936;2023-11-21T08:21:51;9.30;99.90
13682;DHT22;6913;49.892;7.936;2023-11-21T08:24:20;9.40;99.90
13682;DHT22;6913;49.892;7.936;2023-11-21T08:26:48;9.30;99.90
13682;DHT22;6913;49.892;7.936;2023-11-21T08:29:16;9.30;99.90
13682;DHT22;6913;49.892;7.936;2023-11-21T08:31:43;9.30;99.90
13682;DHT22;6913;49.892;7.936;2023-11-21T08:34:12;9.40;99.90
13682;DHT22;6913;49.892;7.936;2023-11-21T08:36:42;9.40;99.90
13682;DHT22;6913;49.892;7.936;2023-11-21T08:39:09;9.40;99.90
13682;DHT22;6913;49.892;7.936;2023-11-21T08:41:36;9.40;99.90
13682;DHT22;6913;49.892;7.936;2023-11-21T08:44:05;9.40;99.90
13682;DHT22;6913;49.892;7.936;2023-11-21T08:46:33;9.40;99.90
13682;DHT22;6913;49.892;7.936;2023-11-21T08:49:04;9.80;99.90
13682;DHT22;6913;49.892;7.936;2023-11-21T08:51:31;9.50;99.90
13682;DHT22;6913;49.892;7.936;2023-11-21T08:53:58;9.50;99.90
13682;DHT22;6913;49.892;7.936;2023-11-21T08:56:27;9.50;99.90
13682;DHT22;6913;49.892;7.936;2023-11-21T08:58:54;9.50;99.90
13682;DHT22;6913;49.892;7.936;2023-11-21T09:01:24;9.60;99.90
13682;DHT22;6913;49.892;7.936;2023-11-21T09:03:51;9.60;99.90
13682;DHT22;6913;49.892;7.936;2023-11-21T09:06:18;9.60;99.90
13682;DHT22;6913;49.892;7.936;2023-11-21T09:08:45;9.60;99.90
13682;DHT22;6913;49.892;7.936;2023-11-21T09:11:12;9.60;99.90
13682;DHT22;6913;49.892;7.936;2023-11-21T09:13:40;9.70;99.90
13682;DHT22;6913;49.892;7.936;2023-11-21T09:16:07;9.80;99.90
13682;DHT22;6913;49.892;7.936;2023-11-21T09:18:35;9.80;99.90
13682;DHT22;6913;49.892;7.936;2023-11-21T09:21:02;9.80;99.90
13682;DHT22;6913;49.892;7.936;2023-11-21T09:23:30;9.80;99.90
13682;DHT22;6913;49.892;7.936;2023-11-21T09:25:57;10.40;99.90
13682;DHT22;6913;49.892;7.936;2023-11-21T09:28:25;9.90;99.90
13682;DHT22;6913;49.892;7.936;2023-11-21T09:30:53;10.00;99.90
13682;DHT22;6913;49.892;7.936;2023-11-21T09:33:20;9.90;99.90
13682;DHT22;6913;49.892;7.936;2023-11-21T09:35:49;10.00;99.90
13682;DHT22;6913;49.892;7.936;2023-11-21T09:38:16;10.00;99.90
13682;DHT22;6913;49.892;7.936;2023-11-21T09:40:43;10.00;99.90
13682;DHT22;6913;49.892;7.936;2023-11-21T09:43:16;10.10;99.90
13682;DHT22;6913;49.892;7.936;2023-11-21T09:45:46;10.10;99.90
13682;DHT22;6913;49.892;7.936;2023-11-21T09:48:14;10.10;99.90
13682;DHT22;6913;49.892;7.936;2023-11-21T09:50:42;10.20;99.90
13682;DHT22;6913;49.892;7.936;2023-11-21T09:53:14;10.30;99.90
13682;DHT22;6913;49.892;7.936;2023-11-21T09:55:46;10.40;99.90
13682;DHT22;6913;49.892;7.936;2023-11-21T09:58:14;10.40;99.90
13682;DHT22;6913;49.892;7.936;2023-11-21T10:00:42;10.50;99.90
13682;DHT22;6913;49.892;7.936;2023-11-21T10:03:09;10.50;99.90
13682;DHT22;6913;49.892;7.936;2023-11-21T10:05:37;10.70;99.90
13682;DHT22;6913;49.892;7.936;2023-11-21T10:08:07;10.60;99.90
13682;DHT22;6913;49.892;7.936;2023-11-21T10:10:37;10.60;99.90
13682;DHT22;6913;49.892;7.936;2023-11-21T10:13:07;10.60;99.90
13682;DHT22;6913;49.892;7.936;2023-11-21T10:15:36;10.70;99.90
13682;DHT22;6913;49.892;7.936;2023-11-21T10:18:04;10.90;99.90
13682;DHT22;6913;49.892;7.936;2023-11-21T10:20:32;10.80;99.90
13682;DHT22;6913;49.892;7.936;2023-11-21T10:23:00;10.90;99.90
13682;DHT22;6913;49.892;7.936;2023-11-21T10:25:29;10.90;99.90
13682;DHT22;6913;49.892;7.936;2023-11-21T10:27:59;11.00;99.90
13682;DHT22;6913;49.892;7.936;2023-11-21T10:30:32;11.00;99.90
13682;DHT22;6913;49.892;7.936;2023-11-21T10:33:03;11.00;99.90
13682;DHT22;6913;49.892;7.936;2023-11-21T10:35:43;11.00;99.90
13682;DHT22;6913;49.892;7.936;2023-11-21T10:38:14;11.00;99.90
13682;DHT22;6913;49.892;7.936;2023-11-21T10:40:41;11.10;99.90
13682;DHT22;6913;49.892;7.936;2023-11-21T10:43:11;11.20;99.90
13682;DHT22;6913;49.892;7.936;2023-11-21T10:45:39;11.20;99.90
13682;DHT22;6913;49.892;7.936;2023-11-21T10:48:06;11.30;99.90
13682;DHT22;6913;49.892;7.936;2023-11-21T10:50:34;11.30;99.90
13682;DHT22;6913;49.892;7.936;2023-11-21T10:53:02;11.30;99.90
13682;DHT22;6913;49.892;7.936;2023-11-21T10:55:31;11.60;99.90
13682;DHT22;6913;49.892;7.936;2023-11-21T10:58:00;11.50;99.90
13682;DHT22;6913;49.892;7.936;2023-11-21T11:00:31;11.50;99.90
13682;DHT22;6913;49.892;7.936;2023-11-21T11:02:59;11.60;99.90
13682;DHT22;6913;49.892;7.936;2023-11-21T11:05:27;11.70;99.90
13682;DHT22;6913;49.892;7.936;2023-11-21T11:07:58;11.70;99.90
13682;DHT22;6913;49.892;7.936;2023-11-21T11:10:27;11.70;99.90
13682;DHT22;6913;49.892;7.936;2023-11-21T11:12:55;11.90;99.90
13682;DHT22;6913;49.892;7.936;2023-11-21T11:15:23;12.20;99.90
13682;DHT22;6913;49.892;7.936;2023-11-21T11:17:52;12.50;99.90
13682;DHT22;6913;49.892;7.936;2023-11-21T11:20:23;12.70;99.90
13682;DHT22;6913;49.892;7.936;2023-11-21T11:23:04;12.60;99.90
13682;DHT22;6913;49.892;7.936;2023-11-21T11:25:44;12.70;99.90
13682;DHT22;6913;49.892;7.936;2023-11-21T11:28:17;12.70;99.90
13682;DHT22;6913;49.892;7.936;2023-11-21T11:30:54;13.20;99.90
13682;DHT22;6913;49.892;7.936;2023-11-21T11:33:36;13.60;99.90
13682;DHT22;6913;49.892;7.936;2023-11-21T11:36:06;13.30;99.90
13682;DHT22;6913;49.892;7.936;2023-11-21T11:38:37;13.20;99.90
13682;DHT22;6913;49.892;7.936;2023-11-21T11:41:05;13.10;99.90
13682;DHT22;6913;49.892;7.936;2023-11-21T11:43:32;12.90;99.90
13682;DHT22;6913;49.892;7.936;2023-11-21T11:46:08;12.80;99.90
13682;DHT22;6913;49.892;7.936;2023-11-21T11:48:37;12.90;99.90
13682;DHT22;6913;49.892;7.936;2023-11-21T11:51:07;12.80;99.90
13682;DHT22;6913;49.892;7.936;2023-11-21T11:53:38;12.60;99.90
13682;DHT22;6913;49.892;7.936;2023-11-21T11:56:23;12.50;99.90
13682;DHT22;6913;49.892;7.936;2023-11-21T11:58:52;12.60;99.90
13682;DHT22;6913;49.892;7.936;2023-11-21T12:01:20;12.90;99.90
13682;DHT22;6913;49.892;7.936;2023-11-21T12:04:26;13.10;99.90
13682;DHT22;6913;49.892;7.936;2023-11-21T12:07:01;13.10;99.90
13682;DHT22;6913;49.892;7.936;2023-11-21T12:09:30;13.00;99.90
13682;DHT22;6913;49.892;7.936;2023-11-21T12:11:58;12.80;99.90
13682;DHT22;6913;49.892;7.936;2023-11-21T12:14:25;12.80;99.90
13682;DHT22;6913;49.892;7.936;2023-11-21T12:16:53;13.20;99.90
13682;DHT22;6913;49.892;7.936;2023-11-21T12:19:20;12.70;99.90
13682;DHT22;6913;49.892;7.936;2023-11-21T12:21:49;12.60;99.90
13682;DHT22;6913;49.892;7.936;2023-11-21T12:24:17;13.00;99.90
13682;DHT22;6913;49.892;7.936;2023-11-21T12:26:44;12.60;99.90
13682;DHT22;6913;49.892;7.936;2023-11-21T12:29:11;12.80;99.90
13682;DHT22;6913;49.892;7.936;2023-11-21T12:31:38;13.20;99.90
13682;DHT22;6913;49.892;7.936;2023-11-21T12:34:06;13.00;99.90
13682;DHT22;6913;49.892;7.936;2023-11-21T12:36:37;12.80;99.90
13682;DHT22;6913;49.892;7.936;2023-11-21T12:39:05;12.80;99.90
13682;DHT22;6913;49.892;7.936;2023-11-21T12:41:34;12.60;99.90
13682;DHT22;6913;49.892;7.936;2023-11-21T12:44:01;12.60;99.90
13682;DHT22;6913;49.892;7.936;2023-11-21T12:46:28;12.70;99.90
13682;DHT22;6913;49.892;7.936;2023-11-21T12:48:58;12.50;99.90
13682;DHT22;6913;49.892;7.936;2023-11-21T12:51:26;12.40;99.90
13682;DHT22;6913;49.892;7.936;2023-11-21T12:53:55;12.30;99.90
13682;DHT22;6913;49.892;7.936;2023-11-21T12:56:25;12.50;99.90
13682;DHT22;6913;49.892;7.936;2023-11-21T12:58:54;12.30;99.90
13682;DHT22;6913;49.892;7.936;2023-11-21T13:01:25;12.30;99.90
13682;DHT22;6913;49.892;7.936;2023-11-21T13:03:57;12.20;99.90
13682;DHT22;6913;49.892;7.936;2023-11-21T13:06:25;12.20;99.90
13682;DHT22;6913;49.892;7.936;2023-11-21T13:08:54;12.30;99.90
13682;DHT22;6913;49.892;7.936;2023-11-21T13:11:22;12.20;99.90
13682;DHT22;6913;49.892;7.936;2023-11-21T13:13:53;12.30;99.90
13682;DHT22;6913;49.892;7.936;2023-11-21T13:16:21;12.00;99.90
13682;DHT22;6913;49.892;7.936;2023-11-21T13:18:49;12.00;99.90
13682;DHT22;6913;49.892;7.936;2023-11-21T13:21:16;12.40;99.90
13682;DHT22;6913;49.892;7.936;2023-11-21T13:23:43;11.90;99.90
13682;DHT22;6913;49.892;7.936;2023-11-21T13:26:11;11.90;99.90
13682;DHT22;6913;49.892;7.936;2023-11-21T13:28:40;11.80;99.90
13682;DHT22;6913;49.892;7.936;2023-11-21T13:31:13;11.90;99.90
13682;DHT22;6913;49.892;7.936;2023-11-21T13:33:51;11.80;99.90
13682;DHT22;6913;49.892;7.936;2023-11-21T13:36:21;11.80;99.90
13682;DHT22;6913;49.892;7.936;2023-11-21T13:38:49;11.80;99.90
13682;DHT22;6913;49.892;7.936;2023-11-21T13:41:16;11.80;99.90
13682;DHT22;6913;49.892;7.936;2023-11-21T13:43:43;11.80;99.90
13682;DHT22;6913;49.892;7.936;2023-11-21T13:46:17;11.80;99.90
13682;DHT22;6913;49.892;7.936;2023-11-21T13:48:47;11.80;99.90
13682;DHT22;6913;49.892;7.936;2023-11-21T13:51:16;11.90;99.90
13682;DHT22;6913;49.892;7.936;2023-11-21T13:53:43;11.70;99.90
13682;DHT22;6913;49.892;7.936;2023-11-21T13:56:12;11.60;99.90
13682;DHT22;6913;49.892;7.936;2023-11-21T13:58:43;11.60;99.90
13682;DHT22;6913;49.892;7.936;2023-11-21T14:01:17;11.50;99.90
13682;DHT22;6913;49.892;7.936;2023-11-21T14:04:03;11.50;99.90
13682;DHT22;6913;49.892;7.936;2023-11-21T14:06:45;11.40;99.90
13682;DHT22;6913;49.892;7.936;2023-11-21T14:09:14;11.80;99.90
13682;DHT22;6913;49.892;7.936;2023-11-21T14:11:51;11.50;99.90
13682;DHT22;6913;49.892;7.936;2023-11-21T14:14:19;11.60;99.90
13682;DHT22;6913;49.892;7.936;2023-11-21T14:16:48;11.90;99.90
13682;DHT22;6913;49.892;7.936;2023-11-21T14:19:15;11.60;99.90
13682;DHT22;6913;49.892;7.936;2023-11-21T14:21:43;11.50;99.90
13682;DHT22;6913;49.892;7.936;2023-11-21T14:24:10;11.50;99.90
13682;DHT22;6913;49.892;7.936;2023-11-21T14:26:42;11.30;99.90
13682;DHT22;6913;49.892;7.936;2023-11-21T14:29:09;11.40;99.90
13682;DHT22;6913;49.892;7.936;2023-11-21T14:31:38;11.40;99.90
13682;DHT22;6913;49.892;7.936;2023-11-21T14:34:06;11.40;99.90
13682;DHT22;6913;49.892;7.936;2023-11-21T14:36:33;11.70;99.90
13682;DHT22;6913;49.892;7.936;2023-11-21T14:39:02;11.20;99.90
13682;DHT22;6913;49.892;7.936;2023-11-21T14:41:32;11.20;99.90
13682;DHT22;6913;49.892;7.936;2023-11-21T14:44:01;11.20;99.90
13682;DHT22;6913;49.892;7.936;2023-11-21T14:46:29;11.20;99.90
13682;DHT22;6913;49.892;7.936;2023-11-21T14:48:56;11.20;99.90
13682;DHT22;6913;49.892;7.936;2023-11-21T14:51:28;11.30;99.90
13682;DHT22;6913;49.892;7.936;2023-11-21T14:53:57;11.30;99.90
13682;DHT22;6913;49.892;7.936;2023-11-21T14:56:30;11.60;99.90
13682;DHT22;6913;49.892;7.936;2023-11-21T14:58:59;11.60;99.90
13682;DHT22;6913;49.892;7.936;2023-11-21T15:01:31;11.40;99.90
13682;DHT22;6913;49.892;7.936;2023-11-21T15:04:10;11.30;99.90
13682;DHT22;6913;49.892;7.936;2023-11-21T15:06:50;11.10;99.90
13682;DHT22;6913;49.892;7.936;2023-11-21T15:09:18;11.30;99.90
13682;DHT22;6913;49.892;7.936;2023-11-21T15:12:00;10.90;99.90
13682;DHT22;6913;49.892;7.936;2023-11-21T15:14:35;10.90;99.90
13682;DHT22;6913;49.892;7.936;2023-11-21T15:17:02;10.80;99.90
13682;DHT22;6913;49.892;7.936;2023-11-21T15:19:29;10.90;99.90
13682;DHT22;6913;49.892;7.936;2023-11-21T15:21:58;11.20;99.90
13682;DHT22;6913;49.892;7.936;2023-11-21T15:24:25;11.40;99.90
13682;DHT22;6913;49.892;7.936;2023-11-21T15:26:52;10.90;99.90
13682;DHT22;6913;49.892;7.936;2023-11-21T15:29:19;10.80;99.90
13682;DHT22;6913;49.892;7.936;2023-11-21T15:31:47;10.80;99.90
13682;DHT22;6913;49.892;7.936;2023-11-21T15:34:14;10.70;99.90
13682;DHT22;6913;49.892;7.936;2023-11-21T15:36:41;10.80;99.90
13682;DHT22;6913;49.892;7.936;2023-11-21T15:39:09;11.20;99.90
13682;DHT22;6913;49.892;7.936;2023-11-21T15:41:37;10.60;99.90
13682;DHT22;6913;49.892;7.936;2023-11-21T15:44:05;10.60;99.90
13682;DHT22;6913;49.892;7.936;2023-11-21T15:46:33;10.70;99.90
13682;DHT22;6913;49.892;7.936;2023-11-21T15:49:01;10.60;99.90
13682;DHT22;6913;49.892;7.936;2023-11-21T15:51:29;10.60;99.90
13682;DHT22;6913;49.892;7.936;2023-11-21T15:53:56;10.70;99.90
13682;DHT22;6913;49.892;7.936;2023-11-21T15:56:25;10.60;99.90
13682;DHT22;6913;49.892;7.936;2023-11-21T15:58:51;10.50;99.90
13682;DHT22;6913;49.892;7.936;2023-11-21T16:01:19;10.50;99.90
13682;DHT22;6913;49.892;7.936;2023-11-21T16:03:47;10.70;99.90